< < Back
Terminal Aerodrome Forecast


Current Version              Previous Versions:   1  2  3  4  5  6  7  8  9  

Terminal Aerodrome Forecast

977
FTUS42 KGSP 310603 RRA
TAFAVL
TAF
KAVL 310603Z 3106/0106 34009KT P6SM FEW045=

Latest METAR

871
SAUS70 KWBC 010100 RRV
MTRAVL
METAR KAVL 010054Z 34008KT 10SM CLR 24/13 A3005 RMK AO2 SLP149
T02390133


USA.gov is the U.S. government's official web portal to all federal, state and local government web resources and services.